Airfield :
LOGIN :

Register | Disclaimer

   EN    FR    IT 

 










Legend :    VFR   Marginal VFR   IFR   Intensive IFR   Very Intensive IFR
Visi :
Ceiling :
>= 8 km
>= 3000ft
5 to 8 km
1000 to 3000 ft
1500m to 5 km
500 to 1000 ft
800 to 1500m
200 to 500 ft
< 800m
< 200 ft
Symbols :   Thunderstorms  Fog  Heavy snow  Heavy precipitations  Wind > 20 kt
SIGMETs :     Misc.  Thunderstorms  Icing  Turbulence  Mountain Waves  Volcanic Ashes







- Airport Elevation : 375 ft
- IATA code : MST


EHBK - Maastricht Aachen

CURRENT METAR :
  • 200925Z AUTO 04008KT 350V110 9999 NCD 19/10 Q1022 NOSIG

EXPIRED METARs :
  • 200855Z AUTO 04005KT 360V090 9999 NCD 17/10 Q1022 NOSIG
  • 200825Z AUTO 05005KT 010V100 9999 NCD 16/10 Q1022 NOSIG
  • 200755Z AUTO 35003KT 290V050 7000 NCD 14/10 Q1022 BECMG CAVOK
  • 200725Z AUTO 33003KT 290V010 6000 NCD 12/10 Q1023 BECMG CAVOK
  • 200655Z AUTO 34003KT 280V050 7000 FEW003 11/10 Q1023 BECMG 8000

TAF COR TAF EHBK
Valid from the 20 at 06:00 until the 21 at 12:00 UTC


200507Z 2006/2112 VRB03KT 4000 BR NSC
PROB30
TEMPO 2006/2007 0800 BCFG BKN003
BECMG 2006/2008 CAVOK
BECMG 2009/2012 07010KT
PROB30
TEMPO 2014/2018 14012G25KT 4000 SHRA TSRA SCT050CB
BECMG 2107/2110 10010KT
No reported NOTAMs for that airfield.



MET'MAP, your aeronautical weather chart ! - Copyright ORBIFLY December 2007 - Disclaimer

ORBIFLY MET'MAP TEAM :

Programming & Development : Alexandra Zaïnal
Concept & Development : Baudouin d'Aumeries
Co-Development & Prog : Marc-Olivier Méhu
Technical & hardware support : Manuel Goepfert

Contact : metmap@orbifly.com




SOURCES & CREDITS :

   NOAA